sensor_id;sensor_type;location;lat;lon;timestamp;P1;durP1;ratioP1;P2;durP2;ratioP2
24335;SDS011;33098;52.400;16.880;2023-09-19T00:00:56;4.80;;;2.80;;
24335;SDS011;33098;52.400;16.880;2023-09-19T00:03:39;5.00;;;3.10;;
24335;SDS011;33098;52.400;16.880;2023-09-19T00:06:12;6.30;;;2.90;;
24335;SDS011;33098;52.400;16.880;2023-09-19T00:08:44;4.10;;;2.90;;
24335;SDS011;33098;52.400;16.880;2023-09-19T00:11:11;6.70;;;2.60;;
24335;SDS011;33098;52.400;16.880;2023-09-19T00:13:43;6.40;;;2.80;;
24335;SDS011;33098;52.400;16.880;2023-09-19T00:16:10;5.00;;;2.60;;
24335;SDS011;33098;52.400;16.880;2023-09-19T00:18:41;6.40;;;3.20;;
24335;SDS011;33098;52.400;16.880;2023-09-19T00:21:12;4.90;;;3.00;;
24335;SDS011;33098;52.400;16.880;2023-09-19T00:23:39;6.50;;;3.20;;
24335;SDS011;33098;52.400;16.880;2023-09-19T00:26:07;3.40;;;2.80;;
24335;SDS011;33098;52.400;16.880;2023-09-19T00:28:39;5.70;;;2.90;;
24335;SDS011;33098;52.400;16.880;2023-09-19T00:31:09;4.00;;;2.90;;
24335;SDS011;33098;52.400;16.880;2023-09-19T00:33:36;4.90;;;2.80;;
24335;SDS011;33098;52.400;16.880;2023-09-19T00:36:08;3.80;;;2.40;;
24335;SDS011;33098;52.400;16.880;2023-09-19T00:38:35;5.60;;;2.90;;
24335;SDS011;33098;52.400;16.880;2023-09-19T00:41:02;4.90;;;2.60;;
24335;SDS011;33098;52.400;16.880;2023-09-19T00:43:29;3.50;;;2.50;;
24335;SDS011;33098;52.400;16.880;2023-09-19T00:45:56;4.60;;;2.60;;
24335;SDS011;33098;52.400;16.880;2023-09-19T00:48:24;5.20;;;2.70;;
24335;SDS011;33098;52.400;16.880;2023-09-19T00:50:59;4.50;;;2.90;;
24335;SDS011;33098;52.400;16.880;2023-09-19T00:53:32;4.30;;;2.50;;
24335;SDS011;33098;52.400;16.880;2023-09-19T00:56:01;2.80;;;2.30;;
24335;SDS011;33098;52.400;16.880;2023-09-19T00:58:35;5.60;;;2.50;;
24335;SDS011;33098;52.400;16.880;2023-09-19T01:01:04;5.10;;;2.50;;
24335;SDS011;33098;52.400;16.880;2023-09-19T01:03:34;3.70;;;2.70;;
24335;SDS011;33098;52.400;16.880;2023-09-19T01:06:07;3.60;;;2.60;;
24335;SDS011;33098;52.400;16.880;2023-09-19T01:08:40;6.10;;;2.90;;
24335;SDS011;33098;52.400;16.880;2023-09-19T01:11:28;6.30;;;2.90;;
24335;SDS011;33098;52.400;16.880;2023-09-19T01:17:00;5.70;;;3.20;;
24335;SDS011;33098;52.400;16.880;2023-09-19T01:28:20;4.20;;;3.70;;
24335;SDS011;33098;52.400;16.880;2023-09-19T01:30:58;4.90;;;3.70;;
24335;SDS011;33098;52.400;16.880;2023-09-19T01:36:33;4.80;;;3.00;;
24335;SDS011;33098;52.400;16.880;2023-09-19T01:39:09;3.40;;;2.70;;
24335;SDS011;33098;52.400;16.880;2023-09-19T01:44:34;3.40;;;2.80;;
24335;SDS011;33098;52.400;16.880;2023-09-19T01:47:28;3.70;;;2.40;;
24335;SDS011;33098;52.400;16.880;2023-09-19T01:53:02;3.10;;;2.50;;
24335;SDS011;33098;52.400;16.880;2023-09-19T01:55:34;5.60;;;2.30;;
24335;SDS011;33098;52.400;16.880;2023-09-19T01:58:33;3.20;;;2.40;;
24335;SDS011;33098;52.400;16.880;2023-09-19T02:01:05;4.20;;;2.30;;
24335;SDS011;33098;52.400;16.880;2023-09-19T02:03:39;3.20;;;2.20;;
24335;SDS011;33098;52.400;16.880;2023-09-19T02:06:17;4.80;;;1.90;;
24335;SDS011;33098;52.400;16.880;2023-09-19T02:08:53;3.10;;;2.20;;
24335;SDS011;33098;52.400;16.880;2023-09-19T02:11:22;3.80;;;2.50;;
24335;SDS011;33098;52.400;16.880;2023-09-19T02:13:54;5.80;;;2.60;;
24335;SDS011;33098;52.400;16.880;2023-09-19T02:16:22;7.40;;;2.10;;
24335;SDS011;33098;52.400;16.880;2023-09-19T02:18:51;3.30;;;2.40;;
24335;SDS011;33098;52.400;16.880;2023-09-19T02:21:22;2.50;;;2.10;;
24335;SDS011;33098;52.400;16.880;2023-09-19T02:23:49;2.90;;;2.20;;
24335;SDS011;33098;52.400;16.880;2023-09-19T02:26:21;4.10;;;2.30;;
24335;SDS011;33098;52.400;16.880;2023-09-19T02:28:49;3.90;;;2.20;;
24335;SDS011;33098;52.400;16.880;2023-09-19T02:31:15;2.60;;;2.00;;
24335;SDS011;33098;52.400;16.880;2023-09-19T02:33:47;6.50;;;2.30;;
24335;SDS011;33098;52.400;16.880;2023-09-19T02:36:17;4.00;;;2.00;;
24335;SDS011;33098;52.400;16.880;2023-09-19T02:38:47;3.00;;;2.00;;
24335;SDS011;33098;52.400;16.880;2023-09-19T02:41:14;3.20;;;2.00;;
24335;SDS011;33098;52.400;16.880;2023-09-19T02:43:45;4.90;;;2.50;;
24335;SDS011;33098;52.400;16.880;2023-09-19T02:46:12;2.30;;;2.10;;
24335;SDS011;33098;52.400;16.880;2023-09-19T02:48:41;3.60;;;2.10;;
24335;SDS011;33098;52.400;16.880;2023-09-19T02:51:08;2.60;;;2.00;;
24335;SDS011;33098;52.400;16.880;2023-09-19T02:53:35;3.80;;;2.20;;
24335;SDS011;33098;52.400;16.880;2023-09-19T02:56:06;4.70;;;2.20;;
24335;SDS011;33098;52.400;16.880;2023-09-19T02:58:34;3.30;;;2.10;;
24335;SDS011;33098;52.400;16.880;2023-09-19T03:01:11;4.60;;;2.20;;
24335;SDS011;33098;52.400;16.880;2023-09-19T03:03:41;4.20;;;2.10;;
24335;SDS011;33098;52.400;16.880;2023-09-19T03:06:08;4.00;;;2.00;;
24335;SDS011;33098;52.400;16.880;2023-09-19T03:08:35;2.30;;;1.70;;
24335;SDS011;33098;52.400;16.880;2023-09-19T03:11:03;2.80;;;1.90;;
24335;SDS011;33098;52.400;16.880;2023-09-19T03:13:35;3.10;;;2.00;;
24335;SDS011;33098;52.400;16.880;2023-09-19T03:16:06;5.40;;;2.20;;
24335;SDS011;33098;52.400;16.880;2023-09-19T03:18:35;2.30;;;1.90;;
24335;SDS011;33098;52.400;16.880;2023-09-19T03:21:02;2.60;;;2.00;;
24335;SDS011;33098;52.400;16.880;2023-09-19T03:23:31;3.70;;;2.30;;
24335;SDS011;33098;52.400;16.880;2023-09-19T03:25:58;3.70;;;2.40;;
24335;SDS011;33098;52.400;16.880;2023-09-19T03:28:25;2.70;;;2.10;;
24335;SDS011;33098;52.400;16.880;2023-09-19T03:31:04;3.00;;;2.00;;
24335;SDS011;33098;52.400;16.880;2023-09-19T03:33:35;4.70;;;2.20;;
24335;SDS011;33098;52.400;16.880;2023-09-19T03:36:08;3.90;;;2.20;;
24335;SDS011;33098;52.400;16.880;2023-09-19T03:38:35;3.50;;;2.60;;
24335;SDS011;33098;52.400;16.880;2023-09-19T03:41:02;4.50;;;3.00;;
24335;SDS011;33098;52.400;16.880;2023-09-19T03:43:29;4.10;;;3.50;;
24335;SDS011;33098;52.400;16.880;2023-09-19T03:46:00;5.80;;;3.00;;
24335;SDS011;33098;52.400;16.880;2023-09-19T03:48:37;4.60;;;3.50;;
24335;SDS011;33098;52.400;16.880;2023-09-19T03:51:12;4.50;;;3.10;;
24335;SDS011;33098;52.400;16.880;2023-09-19T03:53:43;3.60;;;3.20;;
24335;SDS011;33098;52.400;16.880;2023-09-19T03:56:10;4.00;;;3.60;;
24335;SDS011;33098;52.400;16.880;2023-09-19T03:58:37;4.00;;;3.60;;
24335;SDS011;33098;52.400;16.880;2023-09-19T04:01:13;4.70;;;3.70;;
24335;SDS011;33098;52.400;16.880;2023-09-19T04:03:43;5.10;;;4.00;;
24335;SDS011;33098;52.400;16.880;2023-09-19T04:06:14;5.40;;;4.40;;
24335;SDS011;33098;52.400;16.880;2023-09-19T04:08:50;4.20;;;3.40;;
24335;SDS011;33098;52.400;16.880;2023-09-19T04:11:21;4.60;;;3.50;;
24335;SDS011;33098;52.400;16.880;2023-09-19T04:13:52;4.60;;;3.70;;
24335;SDS011;33098;52.400;16.880;2023-09-19T04:16:27;5.40;;;4.10;;
24335;SDS011;33098;52.400;16.880;2023-09-19T04:18:57;7.20;;;4.20;;
24335;SDS011;33098;52.400;16.880;2023-09-19T04:21:24;5.00;;;4.40;;
24335;SDS011;33098;52.400;16.880;2023-09-19T04:23:51;7.50;;;4.80;;
24335;SDS011;33098;52.400;16.880;2023-09-19T04:26:18;5.50;;;4.20;;
24335;SDS011;33098;52.400;16.880;2023-09-19T04:28:47;5.80;;;4.80;;
24335;SDS011;33098;52.400;16.880;2023-09-19T04:31:14;5.10;;;4.50;;
24335;SDS011;33098;52.400;16.880;2023-09-19T04:33:41;6.40;;;4.20;;
24335;SDS011;33098;52.400;16.880;2023-09-19T04:36:10;5.10;;;4.60;;
24335;SDS011;33098;52.400;16.880;2023-09-19T04:38:37;5.00;;;4.50;;
24335;SDS011;33098;52.400;16.880;2023-09-19T04:41:07;7.80;;;4.70;;
24335;SDS011;33098;52.400;16.880;2023-09-19T04:43:39;6.20;;;4.90;;
24335;SDS011;33098;52.400;16.880;2023-09-19T04:46:06;9.10;;;5.10;;
24335;SDS011;33098;52.400;16.880;2023-09-19T04:48:35;7.20;;;5.10;;
24335;SDS011;33098;52.400;16.880;2023-09-19T04:51:06;6.30;;;4.90;;
24335;SDS011;33098;52.400;16.880;2023-09-19T04:53:33;6.20;;;5.30;;
24335;SDS011;33098;52.400;16.880;2023-09-19T04:56:00;6.30;;;4.90;;
24335;SDS011;33098;52.400;16.880;2023-09-19T04:58:27;6.90;;;4.70;;
24335;SDS011;33098;52.400;16.880;2023-09-19T05:00:53;6.50;;;4.70;;
24335;SDS011;33098;52.400;16.880;2023-09-19T05:03:29;11.30;;;4.30;;
24335;SDS011;33098;52.400;16.880;2023-09-19T05:05:58;7.90;;;5.40;;
24335;SDS011;33098;52.400;16.880;2023-09-19T05:08:29;6.90;;;5.20;;
24335;SDS011;33098;52.400;16.880;2023-09-19T05:10:58;6.10;;;4.40;;
24335;SDS011;33098;52.400;16.880;2023-09-19T05:13:24;7.30;;;5.40;;
24335;SDS011;33098;52.400;16.880;2023-09-19T05:15:53;7.20;;;5.50;;
24335;SDS011;33098;52.400;16.880;2023-09-19T05:18:25;5.80;;;5.30;;
24335;SDS011;33098;52.400;16.880;2023-09-19T05:20:53;6.70;;;4.80;;
24335;SDS011;33098;52.400;16.880;2023-09-19T05:23:21;6.00;;;5.50;;
24335;SDS011;33098;52.400;16.880;2023-09-19T05:25:48;7.50;;;5.30;;
24335;SDS011;33098;52.400;16.880;2023-09-19T05:28:15;5.30;;;4.80;;
24335;SDS011;33098;52.400;16.880;2023-09-19T05:30:42;6.10;;;5.10;;
24335;SDS011;33098;52.400;16.880;2023-09-19T05:33:09;5.60;;;4.90;;
24335;SDS011;33098;52.400;16.880;2023-09-19T05:35:36;7.90;;;5.00;;
24335;SDS011;33098;52.400;16.880;2023-09-19T05:38:08;6.30;;;4.70;;
24335;SDS011;33098;52.400;16.880;2023-09-19T05:40:39;6.20;;;4.30;;
24335;SDS011;33098;52.400;16.880;2023-09-19T05:43:08;6.50;;;4.40;;
24335;SDS011;33098;52.400;16.880;2023-09-19T05:45:35;5.00;;;4.30;;
24335;SDS011;33098;52.400;16.880;2023-09-19T05:48:10;7.20;;;4.50;;
24335;SDS011;33098;52.400;16.880;2023-09-19T05:50:40;7.00;;;4.20;;
24335;SDS011;33098;52.400;16.880;2023-09-19T05:53:06;7.30;;;4.50;;
24335;SDS011;33098;52.400;16.880;2023-09-19T05:55:34;5.60;;;4.40;;
24335;SDS011;33098;52.400;16.880;2023-09-19T05:58:04;6.80;;;4.40;;
24335;SDS011;33098;52.400;16.880;2023-09-19T06:00:31;5.50;;;4.20;;
24335;SDS011;33098;52.400;16.880;2023-09-19T06:02:59;6.50;;;4.20;;
24335;SDS011;33098;52.400;16.880;2023-09-19T06:05:30;7.10;;;4.70;;
24335;SDS011;33098;52.400;16.880;2023-09-19T06:07:58;6.70;;;4.10;;
24335;SDS011;33098;52.400;16.880;2023-09-19T06:10:33;5.00;;;4.20;;
24335;SDS011;33098;52.400;16.880;2023-09-19T06:13:03;6.80;;;4.50;;
24335;SDS011;33098;52.400;16.880;2023-09-19T06:15:36;6.30;;;4.40;;
24335;SDS011;33098;52.400;16.880;2023-09-19T06:18:03;4.90;;;4.40;;
24335;SDS011;33098;52.400;16.880;2023-09-19T06:20:31;5.90;;;4.10;;
24335;SDS011;33098;52.400;16.880;2023-09-19T06:22:59;6.60;;;4.40;;
24335;SDS011;33098;52.400;16.880;2023-09-19T06:25:28;7.40;;;4.60;;
24335;SDS011;33098;52.400;16.880;2023-09-19T06:27:57;5.30;;;4.10;;
24335;SDS011;33098;52.400;16.880;2023-09-19T06:30:24;5.40;;;4.40;;
24335;SDS011;33098;52.400;16.880;2023-09-19T06:32:57;6.70;;;3.80;;
24335;SDS011;33098;52.400;16.880;2023-09-19T06:35:28;5.80;;;4.30;;
24335;SDS011;33098;52.400;16.880;2023-09-19T06:38:01;6.20;;;4.40;;
24335;SDS011;33098;52.400;16.880;2023-09-19T06:40:31;8.30;;;4.60;;
24335;SDS011;33098;52.400;16.880;2023-09-19T06:42:58;6.00;;;4.80;;
24335;SDS011;33098;52.400;16.880;2023-09-19T06:45:25;5.00;;;4.20;;
24335;SDS011;33098;52.400;16.880;2023-09-19T06:47:55;4.80;;;4.30;;
24335;SDS011;33098;52.400;16.880;2023-09-19T06:50:24;6.40;;;4.40;;
24335;SDS011;33098;52.400;16.880;2023-09-19T06:52:52;4.50;;;4.10;;
24335;SDS011;33098;52.400;16.880;2023-09-19T06:55:20;5.20;;;4.70;;
24335;SDS011;33098;52.400;16.880;2023-09-19T06:57:51;5.10;;;4.60;;
24335;SDS011;33098;52.400;16.880;2023-09-19T07:00:18;7.30;;;4.80;;
24335;SDS011;33098;52.400;16.880;2023-09-19T07:03:04;8.70;;;4.20;;
24335;SDS011;33098;52.400;16.880;2023-09-19T07:05:34;5.40;;;4.20;;
24335;SDS011;33098;52.400;16.880;2023-09-19T07:08:08;5.80;;;5.00;;
24335;SDS011;33098;52.400;16.880;2023-09-19T07:10:39;6.80;;;4.60;;
24335;SDS011;33098;52.400;16.880;2023-09-19T07:13:16;6.30;;;4.30;;
24335;SDS011;33098;52.400;16.880;2023-09-19T07:15:45;6.00;;;4.20;;
24335;SDS011;33098;52.400;16.880;2023-09-19T07:18:16;7.50;;;4.30;;
24335;SDS011;33098;52.400;16.880;2023-09-19T07:20:47;5.50;;;4.00;;
24335;SDS011;33098;52.400;16.880;2023-09-19T07:23:18;8.20;;;4.50;;
24335;SDS011;33098;52.400;16.880;2023-09-19T07:25:47;4.80;;;4.30;;
24335;SDS011;33098;52.400;16.880;2023-09-19T07:28:15;4.80;;;3.40;;
24335;SDS011;33098;52.400;16.880;2023-09-19T07:30:45;7.20;;;4.30;;
24335;SDS011;33098;52.400;16.880;2023-09-19T07:33:12;6.20;;;4.40;;
24335;SDS011;33098;52.400;16.880;2023-09-19T07:35:38;6.00;;;4.10;;
24335;SDS011;33098;52.400;16.880;2023-09-19T07:38:08;5.50;;;4.20;;
24335;SDS011;33098;52.400;16.880;2023-09-19T07:40:37;6.10;;;4.50;;
24335;SDS011;33098;52.400;16.880;2023-09-19T07:43:05;4.70;;;3.80;;
24335;SDS011;33098;52.400;16.880;2023-09-19T07:45:33;6.20;;;3.80;;
24335;SDS011;33098;52.400;16.880;2023-09-19T07:48:03;6.00;;;3.90;;
24335;SDS011;33098;52.400;16.880;2023-09-19T07:50:42;6.60;;;4.00;;
24335;SDS011;33098;52.400;16.880;2023-09-19T07:53:21;5.20;;;4.20;;
24335;SDS011;33098;52.400;16.880;2023-09-19T07:55:48;7.30;;;4.30;;
24335;SDS011;33098;52.400;16.880;2023-09-19T07:58:15;4.80;;;4.00;;
24335;SDS011;33098;52.400;16.880;2023-09-19T08:00:47;5.30;;;3.70;;
24335;SDS011;33098;52.400;16.880;2023-09-19T08:03:16;4.50;;;3.40;;
24335;SDS011;33098;52.400;16.880;2023-09-19T08:05:46;4.70;;;2.90;;
24335;SDS011;33098;52.400;16.880;2023-09-19T08:08:21;3.70;;;3.00;;
24335;SDS011;33098;52.400;16.880;2023-09-19T08:10:52;3.70;;;3.30;;
24335;SDS011;33098;52.400;16.880;2023-09-19T08:13:28;4.20;;;3.20;;
24335;SDS011;33098;52.400;16.880;2023-09-19T08:15:56;6.60;;;3.30;;
24335;SDS011;33098;52.400;16.880;2023-09-19T08:18:22;4.90;;;3.50;;
24335;SDS011;33098;52.400;16.880;2023-09-19T08:20:52;4.90;;;3.30;;
24335;SDS011;33098;52.400;16.880;2023-09-19T08:23:19;8.80;;;3.40;;
24335;SDS011;33098;52.400;16.880;2023-09-19T08:25:47;6.30;;;3.30;;
24335;SDS011;33098;52.400;16.880;2023-09-19T08:28:14;4.60;;;3.30;;
24335;SDS011;33098;52.400;16.880;2023-09-19T08:30:45;4.40;;;3.20;;
24335;SDS011;33098;52.400;16.880;2023-09-19T08:33:15;3.90;;;3.20;;
24335;SDS011;33098;52.400;16.880;2023-09-19T08:35:42;4.40;;;2.90;;
24335;SDS011;33098;52.400;16.880;2023-09-19T08:38:12;4.70;;;3.20;;
24335;SDS011;33098;52.400;16.880;2023-09-19T08:40:40;3.90;;;3.00;;
24335;SDS011;33098;52.400;16.880;2023-09-19T08:43:08;7.10;;;3.10;;
24335;SDS011;33098;52.400;16.880;2023-09-19T08:45:37;5.60;;;3.10;;
24335;SDS011;33098;52.400;16.880;2023-09-19T08:48:17;5.40;;;3.10;;
24335;SDS011;33098;52.400;16.880;2023-09-19T08:50:53;3.90;;;2.60;;
24335;SDS011;33098;52.400;16.880;2023-09-19T08:53:36;6.40;;;3.10;;
24335;SDS011;33098;52.400;16.880;2023-09-19T08:56:11;5.50;;;3.20;;
24335;SDS011;33098;52.400;16.880;2023-09-19T08:58:57;7.20;;;3.20;;
24335;SDS011;33098;52.400;16.880;2023-09-19T09:01:35;5.80;;;3.20;;
24335;SDS011;33098;52.400;16.880;2023-09-19T09:04:02;5.60;;;2.10;;
24335;SDS011;33098;52.400;16.880;2023-09-19T09:06:29;3.20;;;2.70;;
24335;SDS011;33098;52.400;16.880;2023-09-19T09:09:02;5.00;;;2.80;;
24335;SDS011;33098;52.400;16.880;2023-09-19T09:11:35;6.30;;;2.90;;
24335;SDS011;33098;52.400;16.880;2023-09-19T09:14:08;4.00;;;2.70;;
24335;SDS011;33098;52.400;16.880;2023-09-19T09:16:36;5.00;;;2.50;;
24335;SDS011;33098;52.400;16.880;2023-09-19T09:19:04;5.50;;;2.40;;
24335;SDS011;33098;52.400;16.880;2023-09-19T09:21:34;8.20;;;2.70;;
24335;SDS011;33098;52.400;16.880;2023-09-19T09:26:58;3.90;;;2.20;;
24335;SDS011;33098;52.400;16.880;2023-09-19T09:29:46;3.20;;;2.20;;
24335;SDS011;33098;52.400;16.880;2023-09-19T09:32:24;5.60;;;2.40;;
24335;SDS011;33098;52.400;16.880;2023-09-19T09:34:56;3.90;;;2.10;;
24335;SDS011;33098;52.400;16.880;2023-09-19T09:37:24;5.50;;;2.30;;
24335;SDS011;33098;52.400;16.880;2023-09-19T09:39:57;7.30;;;2.50;;
24335;SDS011;33098;52.400;16.880;2023-09-19T09:42:39;4.20;;;2.30;;
24335;SDS011;33098;52.400;16.880;2023-09-19T09:45:22;3.30;;;2.20;;
24335;SDS011;33098;52.400;16.880;2023-09-19T09:48:04;2.70;;;1.80;;
24335;SDS011;33098;52.400;16.880;2023-09-19T09:50:47;6.30;;;2.20;;
24335;SDS011;33098;52.400;16.880;2023-09-19T09:53:24;4.70;;;2.50;;
24335;SDS011;33098;52.400;16.880;2023-09-19T09:56:05;4.70;;;2.10;;
24335;SDS011;33098;52.400;16.880;2023-09-19T09:58:36;4.80;;;2.10;;
24335;SDS011;33098;52.400;16.880;2023-09-19T10:01:08;7.30;;;2.50;;
24335;SDS011;33098;52.400;16.880;2023-09-19T10:03:41;3.50;;;1.90;;
24335;SDS011;33098;52.400;16.880;2023-09-19T10:06:15;4.60;;;2.30;;
24335;SDS011;33098;52.400;16.880;2023-09-19T10:09:06;3.80;;;2.00;;
24335;SDS011;33098;52.400;16.880;2023-09-19T10:11:44;5.10;;;2.20;;
24335;SDS011;33098;52.400;16.880;2023-09-19T10:14:15;3.20;;;2.00;;
24335;SDS011;33098;52.400;16.880;2023-09-19T10:16:53;5.50;;;2.30;;
24335;SDS011;33098;52.400;16.880;2023-09-19T10:19:33;4.00;;;2.10;;
24335;SDS011;33098;52.400;16.880;2023-09-19T10:22:06;3.70;;;1.90;;
24335;SDS011;33098;52.400;16.880;2023-09-19T10:24:38;5.30;;;2.20;;
24335;SDS011;33098;52.400;16.880;2023-09-19T10:27:09;6.00;;;2.20;;
24335;SDS011;33098;52.400;16.880;2023-09-19T10:29:39;4.50;;;2.20;;
24335;SDS011;33098;52.400;16.880;2023-09-19T10:32:23;6.70;;;2.30;;
24335;SDS011;33098;52.400;16.880;2023-09-19T10:34:54;3.70;;;2.10;;
24335;SDS011;33098;52.400;16.880;2023-09-19T10:37:23;3.20;;;2.00;;
24335;SDS011;33098;52.400;16.880;2023-09-19T10:39:55;4.30;;;1.80;;
24335;SDS011;33098;52.400;16.880;2023-09-19T10:42:23;3.70;;;2.00;;
24335;SDS011;33098;52.400;16.880;2023-09-19T10:45:00;4.70;;;1.90;;
24335;SDS011;33098;52.400;16.880;2023-09-19T10:47:35;3.10;;;1.80;;
24335;SDS011;33098;52.400;16.880;2023-09-19T10:50:19;4.10;;;2.00;;
24335;SDS011;33098;52.400;16.880;2023-09-19T10:52:51;5.80;;;1.80;;
24335;SDS011;33098;52.400;16.880;2023-09-19T10:55:33;5.80;;;2.30;;
24335;SDS011;33098;52.400;16.880;2023-09-19T10:58:07;2.40;;;1.90;;
24335;SDS011;33098;52.400;16.880;2023-09-19T11:00:52;3.60;;;1.80;;
24335;SDS011;33098;52.400;16.880;2023-09-19T11:03:20;2.90;;;1.80;;
24335;SDS011;33098;52.400;16.880;2023-09-19T11:06:02;4.60;;;1.70;;
24335;SDS011;33098;52.400;16.880;2023-09-19T11:09:03;3.80;;;2.10;;
24335;SDS011;33098;52.400;16.880;2023-09-19T11:11:44;3.50;;;1.90;;
24335;SDS011;33098;52.400;16.880;2023-09-19T11:20:14;3.80;;;2.10;;
24335;SDS011;33098;52.400;16.880;2023-09-19T11:28:41;3.80;;;2.60;;
24335;SDS011;33098;52.400;16.880;2023-09-19T11:30:51;4.80;;;2.20;;
24335;SDS011;33098;52.400;16.880;2023-09-19T11:33:29;4.60;;;2.50;;
24335;SDS011;33098;52.400;16.880;2023-09-19T11:36:03;3.50;;;2.20;;
24335;SDS011;33098;52.400;16.880;2023-09-19T11:47:15;5.30;;;2.70;;
24335;SDS011;33098;52.400;16.880;2023-09-19T11:49:27;3.50;;;2.30;;
24335;SDS011;33098;52.400;16.880;2023-09-19T11:51:56;4.50;;;2.20;;
24335;SDS011;33098;52.400;16.880;2023-09-19T11:54:23;2.90;;;2.20;;
24335;SDS011;33098;52.400;16.880;2023-09-19T11:56:57;4.50;;;2.10;;
24335;SDS011;33098;52.400;16.880;2023-09-19T11:59:30;4.80;;;2.40;;
24335;SDS011;33098;52.400;16.880;2023-09-19T12:01:58;7.30;;;3.40;;
24335;SDS011;33098;52.400;16.880;2023-09-19T12:04:35;4.00;;;2.40;;
24335;SDS011;33098;52.400;16.880;2023-09-19T12:07:15;3.70;;;2.50;;
24335;SDS011;33098;52.400;16.880;2023-09-19T12:09:43;4.10;;;2.70;;
24335;SDS011;33098;52.400;16.880;2023-09-19T12:12:23;3.60;;;2.40;;
24335;SDS011;33098;52.400;16.880;2023-09-19T12:14:54;4.00;;;3.00;;
24335;SDS011;33098;52.400;16.880;2023-09-19T12:17:38;5.00;;;2.60;;
24335;SDS011;33098;52.400;16.880;2023-09-19T12:20:14;4.70;;;2.50;;
24335;SDS011;33098;52.400;16.880;2023-09-19T12:22:43;3.20;;;2.90;;
24335;SDS011;33098;52.400;16.880;2023-09-19T12:25:15;4.90;;;2.80;;
24335;SDS011;33098;52.400;16.880;2023-09-19T12:27:51;3.40;;;3.10;;
24335;SDS011;33098;52.400;16.880;2023-09-19T12:30:19;3.10;;;2.50;;
24335;SDS011;33098;52.400;16.880;2023-09-19T12:32:47;3.30;;;3.00;;
24335;SDS011;33098;52.400;16.880;2023-09-19T12:35:28;4.10;;;3.20;;
24335;SDS011;33098;52.400;16.880;2023-09-19T12:38:08;3.60;;;2.90;;
24335;SDS011;33098;52.400;16.880;2023-09-19T12:40:39;3.60;;;2.80;;
24335;SDS011;33098;52.400;16.880;2023-09-19T12:43:11;4.60;;;2.90;;
24335;SDS011;33098;52.400;16.880;2023-09-19T12:45:43;4.20;;;3.30;;
24335;SDS011;33098;52.400;16.880;2023-09-19T12:51:34;4.70;;;2.90;;
24335;SDS011;33098;52.400;16.880;2023-09-19T12:54:09;4.40;;;3.10;;
24335;SDS011;33098;52.400;16.880;2023-09-19T12:56:41;4.40;;;2.50;;
24335;SDS011;33098;52.400;16.880;2023-09-19T12:59:18;4.60;;;2.70;;
24335;SDS011;33098;52.400;16.880;2023-09-19T13:02:03;3.50;;;3.20;;
24335;SDS011;33098;52.400;16.880;2023-09-19T13:04:33;3.40;;;3.00;;
24335;SDS011;33098;52.400;16.880;2023-09-19T13:07:01;4.00;;;3.00;;
24335;SDS011;33098;52.400;16.880;2023-09-19T13:09:28;3.80;;;3.30;;
24335;SDS011;33098;52.400;16.880;2023-09-19T13:12:05;7.30;;;3.50;;
24335;SDS011;33098;52.400;16.880;2023-09-19T13:15:11;4.30;;;2.70;;
24335;SDS011;33098;52.400;16.880;2023-09-19T13:17:42;3.50;;;2.90;;
24335;SDS011;33098;52.400;16.880;2023-09-19T13:20:25;3.80;;;3.50;;
24335;SDS011;33098;52.400;16.880;2023-09-19T13:23:02;3.80;;;3.50;;
24335;SDS011;33098;52.400;16.880;2023-09-19T13:25:37;4.30;;;3.90;;
24335;SDS011;33098;52.400;16.880;2023-09-19T13:28:06;4.10;;;3.30;;
24335;SDS011;33098;52.400;16.880;2023-09-19T13:30:37;4.10;;;3.80;;
24335;SDS011;33098;52.400;16.880;2023-09-19T13:33:13;4.90;;;3.10;;
24335;SDS011;33098;52.400;16.880;2023-09-19T13:35:47;3.90;;;3.50;;
24335;SDS011;33098;52.400;16.880;2023-09-19T13:38:14;3.80;;;3.50;;
24335;SDS011;33098;52.400;16.880;2023-09-19T13:40:41;4.70;;;3.70;;
24335;SDS011;33098;52.400;16.880;2023-09-19T13:43:13;4.10;;;3.80;;
24335;SDS011;33098;52.400;16.880;2023-09-19T13:45:40;4.20;;;3.80;;
24335;SDS011;33098;52.400;16.880;2023-09-19T13:48:12;4.10;;;2.80;;
24335;SDS011;33098;52.400;16.880;2023-09-19T13:50:41;5.00;;;3.90;;
24335;SDS011;33098;52.400;16.880;2023-09-19T13:53:11;3.40;;;3.10;;
24335;SDS011;33098;52.400;16.880;2023-09-19T13:55:38;4.10;;;3.70;;
24335;SDS011;33098;52.400;16.880;2023-09-19T13:58:08;3.90;;;3.60;;
24335;SDS011;33098;52.400;16.880;2023-09-19T14:00:37;3.60;;;3.30;;
24335;SDS011;33098;52.400;16.880;2023-09-19T14:03:05;3.90;;;3.60;;
24335;SDS011;33098;52.400;16.880;2023-09-19T14:05:39;4.00;;;3.60;;
24335;SDS011;33098;52.400;16.880;2023-09-19T14:08:06;3.30;;;3.00;;
24335;SDS011;33098;52.400;16.880;2023-09-19T14:10:33;3.70;;;3.40;;
24335;SDS011;33098;52.400;16.880;2023-09-19T14:13:02;4.80;;;4.20;;
24335;SDS011;33098;52.400;16.880;2023-09-19T14:15:28;4.90;;;4.40;;
24335;SDS011;33098;52.400;16.880;2023-09-19T14:17:59;3.50;;;3.20;;
24335;SDS011;33098;52.400;16.880;2023-09-19T14:20:27;5.10;;;3.80;;
24335;SDS011;33098;52.400;16.880;2023-09-19T14:22:54;3.90;;;3.50;;
24335;SDS011;33098;52.400;16.880;2023-09-19T14:25:21;5.30;;;4.80;;
24335;SDS011;33098;52.400;16.880;2023-09-19T14:27:51;6.40;;;4.00;;
24335;SDS011;33098;52.400;16.880;2023-09-19T14:30:26;5.80;;;4.90;;
24335;SDS011;33098;52.400;16.880;2023-09-19T14:32:54;5.10;;;4.40;;
24335;SDS011;33098;52.400;16.880;2023-09-19T14:35:21;4.70;;;4.30;;
24335;SDS011;33098;52.400;16.880;2023-09-19T14:37:49;4.40;;;3.90;;
24335;SDS011;33098;52.400;16.880;2023-09-19T14:40:16;5.00;;;4.20;;
24335;SDS011;33098;52.400;16.880;2023-09-19T14:42:47;4.40;;;4.00;;
24335;SDS011;33098;52.400;16.880;2023-09-19T14:45:16;3.90;;;3.60;;
24335;SDS011;33098;52.400;16.880;2023-09-19T14:47:47;6.00;;;5.20;;
24335;SDS011;33098;52.400;16.880;2023-09-19T14:50:25;3.40;;;3.10;;
24335;SDS011;33098;52.400;16.880;2023-09-19T14:52:53;7.20;;;3.90;;
24335;SDS011;33098;52.400;16.880;2023-09-19T14:55:20;7.10;;;4.20;;
24335;SDS011;33098;52.400;16.880;2023-09-19T14:57:52;4.20;;;3.90;;
24335;SDS011;33098;52.400;16.880;2023-09-19T15:00:23;5.40;;;4.20;;
24335;SDS011;33098;52.400;16.880;2023-09-19T15:02:58;5.20;;;4.50;;
24335;SDS011;33098;52.400;16.880;2023-09-19T15:05:30;5.30;;;3.50;;
24335;SDS011;33098;52.400;16.880;2023-09-19T15:08:01;4.70;;;3.90;;
24335;SDS011;33098;52.400;16.880;2023-09-19T15:12:58;4.00;;;3.00;;
24335;SDS011;33098;52.400;16.880;2023-09-19T15:15:31;4.40;;;3.70;;
24335;SDS011;33098;52.400;16.880;2023-09-19T15:18:01;3.70;;;3.20;;
24335;SDS011;33098;52.400;16.880;2023-09-19T15:20:28;3.90;;;3.50;;
24335;SDS011;33098;52.400;16.880;2023-09-19T15:23:00;5.10;;;3.40;;
24335;SDS011;33098;52.400;16.880;2023-09-19T15:25:30;5.10;;;4.40;;
24335;SDS011;33098;52.400;16.880;2023-09-19T15:28:00;4.80;;;3.90;;
24335;SDS011;33098;52.400;16.880;2023-09-19T15:30:37;4.10;;;3.40;;
24335;SDS011;33098;52.400;16.880;2023-09-19T15:33:07;5.40;;;4.90;;
24335;SDS011;33098;52.400;16.880;2023-09-19T15:35:34;4.70;;;3.80;;
24335;SDS011;33098;52.400;16.880;2023-09-19T15:38:04;5.00;;;4.60;;
24335;SDS011;33098;52.400;16.880;2023-09-19T15:40:34;4.10;;;3.20;;
24335;SDS011;33098;52.400;16.880;2023-09-19T15:43:01;5.30;;;4.20;;
24335;SDS011;33098;52.400;16.880;2023-09-19T15:45:29;4.70;;;2.50;;
24335;SDS011;33098;52.400;16.880;2023-09-19T15:48:01;4.30;;;4.00;;